createdAt,value
2017-10-15T00:01:38.146Z,10.00
2017-10-15T00:04:05.585Z,10.70
2017-10-15T00:06:33.027Z,13.33
2017-10-15T00:09:00.475Z,9.30
2017-10-15T00:11:28.318Z,16.43
2017-10-15T00:13:57.134Z,18.17
2017-10-15T00:16:24.564Z,10.63
2017-10-15T00:18:52.547Z,11.90
2017-10-15T00:21:19.976Z,9.30
2017-10-15T00:23:48.432Z,11.73
2017-10-15T00:26:15.862Z,13.63
2017-10-15T00:28:43.623Z,11.47
2017-10-15T00:31:11.059Z,13.57
2017-10-15T00:33:38.482Z,12.83
2017-10-15T00:36:06.690Z,16.23
2017-10-15T00:38:34.669Z,11.47
2017-10-15T00:41:02.174Z,11.17
2017-10-15T00:43:29.607Z,16.13
2017-10-15T00:45:57.045Z,11.63
2017-10-15T00:48:24.495Z,10.47
2017-10-15T00:50:52.486Z,10.03
2017-10-15T00:53:19.923Z,13.10
2017-10-15T00:55:47.362Z,9.93
2017-10-15T00:58:17.206Z,13.90
2017-10-15T01:00:44.658Z,15.90
2017-10-15T01:03:12.091Z,9.70
2017-10-15T01:05:39.526Z,14.60
2017-10-15T01:08:07.770Z,17.10
2017-10-15T01:10:35.221Z,23.60
2017-10-15T01:13:02.651Z,20.50
2017-10-15T01:15:30.099Z,14.17
2017-10-15T01:17:57.535Z,10.70
2017-10-15T01:20:26.146Z,10.53
2017-10-15T01:22:53.573Z,10.60
2017-10-15T01:25:21.738Z,11.67
2017-10-15T01:27:49.949Z,11.43
2017-10-15T01:30:17.374Z,14.57
2017-10-15T01:32:46.136Z,13.30
2017-10-15T01:35:13.583Z,13.73
2017-10-15T01:37:41.021Z,11.97
2017-10-15T01:40:08.469Z,8.77
2017-10-15T01:42:35.901Z,8.90
2017-10-15T01:45:03.332Z,9.57
2017-10-15T01:47:31.407Z,8.47
2017-10-15T01:49:58.827Z,12.60
2017-10-15T01:52:26.274Z,8.53
2017-10-15T01:54:53.700Z,9.13
2017-10-15T01:57:21.139Z,12.27
2017-10-15T01:59:49.336Z,8.13
2017-10-15T02:02:16.775Z,14.07
2017-10-15T02:04:44.990Z,14.47
2017-10-15T02:07:12.443Z,15.03
2017-10-15T02:09:40.441Z,12.63
2017-10-15T02:12:07.873Z,9.63
2017-10-15T02:14:35.302Z,8.20
2017-10-15T02:17:03.378Z,10.93
2017-10-15T02:19:30.816Z,11.83
2017-10-15T02:21:59.022Z,13.03
2017-10-15T02:24:26.447Z,5.63
2017-10-15T02:26:54.661Z,10.57
2017-10-15T02:29:22.929Z,11.47
2017-10-15T02:31:50.363Z,6.27
2017-10-15T02:34:18.576Z,11.93
2017-10-15T02:36:46.012Z,12.10
2017-10-15T02:39:13.455Z,16.83
2017-10-15T02:41:42.072Z,7.60
2017-10-15T02:44:09.507Z,10.47
2017-10-15T02:46:37.510Z,10.97
2017-10-15T02:49:05.506Z,9.33
2017-10-15T02:51:33.471Z,7.00
2017-10-15T02:54:01.315Z,6.97
2017-10-15T02:56:29.142Z,12.70
2017-10-15T02:58:57.336Z,10.70
2017-10-15T03:01:24.774Z,13.23
2017-10-15T03:03:52.221Z,12.70
2017-10-15T03:06:20.682Z,12.07
2017-10-15T03:08:48.517Z,11.93
2017-10-15T03:11:15.989Z,19.90
2017-10-15T03:13:43.440Z,17.87
2017-10-15T03:16:10.868Z,14.73
2017-10-15T03:18:38.316Z,13.13
2017-10-15T03:21:06.583Z,18.83
2017-10-15T03:23:34.777Z,14.30
2017-10-15T03:26:02.507Z,16.10
2017-10-15T03:28:29.960Z,20.13
2017-10-15T03:30:58.153Z,9.67
2017-10-15T03:33:26.211Z,8.63
2017-10-15T03:35:55.457Z,10.57
2017-10-15T03:38:22.900Z,14.50
2017-10-15T03:40:50.339Z,11.17
2017-10-15T03:43:17.782Z,11.87
2017-10-15T03:45:46.415Z,9.10
2017-10-15T03:48:13.861Z,10.90
2017-10-15T03:50:41.303Z,23.23
2017-10-15T03:53:09.267Z,5.10
2017-10-15T03:55:37.500Z,7.30
2017-10-15T03:58:05.482Z,6.43
2017-10-15T04:00:32.931Z,5.00
2017-10-15T04:03:00.345Z,5.93
2017-10-15T04:05:27.789Z,9.67
2017-10-15T04:07:56.538Z,9.97
2017-10-15T04:10:23.981Z,13.03
2017-10-15T04:12:51.413Z,16.17
2017-10-15T04:15:19.302Z,10.27
2017-10-15T04:17:46.739Z,11.10
2017-10-15T04:20:14.535Z,18.13
2017-10-15T04:22:42.107Z,19.47
2017-10-15T04:25:10.375Z,16.83
2017-10-15T04:27:38.223Z,21.13
2017-10-15T04:30:05.685Z,13.13
2017-10-15T04:32:33.131Z,11.50
2017-10-15T04:35:01.021Z,16.37
2017-10-15T04:37:28.463Z,42.70
2017-10-15T04:39:56.212Z,9.00
2017-10-15T04:42:24.202Z,20.03
2017-10-15T04:44:51.640Z,8.70
2017-10-15T04:47:19.611Z,17.77
2017-10-15T04:49:47.047Z,7.27
2017-10-15T04:52:14.485Z,24.07
2017-10-15T04:54:41.917Z,7.77
2017-10-15T04:57:09.365Z,7.13
2017-10-15T04:59:36.801Z,9.80
2017-10-15T05:02:04.253Z,21.83
2017-10-15T05:04:31.685Z,5.97
2017-10-15T05:06:59.133Z,17.60
2017-10-15T05:09:26.563Z,6.90
2017-10-15T05:11:54.929Z,5.80
2017-10-15T05:14:22.353Z,7.73
2017-10-15T05:16:49.796Z,5.63
2017-10-15T05:19:17.238Z,44.60
2017-10-15T05:21:44.686Z,10.63
2017-10-15T05:24:12.115Z,10.47
2017-10-15T05:26:40.033Z,12.33
2017-10-15T05:29:07.471Z,11.53
2017-10-15T05:31:34.930Z,4.60
2017-10-15T05:34:02.368Z,6.10
2017-10-15T05:36:30.573Z,6.10
2017-10-15T05:38:58.022Z,6.97
2017-10-15T05:41:25.446Z,6.47
2017-10-15T05:43:53.692Z,5.10
2017-10-15T05:46:21.122Z,4.77
2017-10-15T05:48:48.556Z,5.23
2017-10-15T05:51:15.983Z,5.33
2017-10-15T05:53:43.428Z,4.73
2017-10-15T05:56:11.619Z,4.77
2017-10-15T05:58:39.070Z,12.13
2017-10-15T06:01:06.884Z,9.60
2017-10-15T06:03:37.418Z,20.17
2017-10-15T06:06:04.851Z,15.70
2017-10-15T06:08:33.048Z,8.23
2017-10-15T06:11:01.811Z,10.27
2017-10-15T06:13:30.022Z,14.87
2017-10-15T06:15:57.464Z,8.50
2017-10-15T06:18:24.907Z,10.13
2017-10-15T06:20:52.366Z,10.60
2017-10-15T06:23:19.811Z,17.90
2017-10-15T06:25:47.999Z,7.50
2017-10-15T06:28:15.446Z,11.27
2017-10-15T06:30:42.893Z,10.20
2017-10-15T06:33:11.104Z,6.73
2017-10-15T06:35:38.551Z,17.47
2017-10-15T06:38:06.037Z,9.87
2017-10-15T06:40:33.486Z,11.27
2017-10-15T06:43:00.927Z,18.57
2017-10-15T06:45:28.359Z,10.97
2017-10-15T06:47:57.442Z,9.47
2017-10-15T06:50:26.298Z,8.33
2017-10-15T06:52:53.714Z,9.97
2017-10-15T06:55:21.162Z,9.53
2017-10-15T06:57:49.361Z,6.73
2017-10-15T07:00:16.800Z,9.17
2017-10-15T07:02:44.236Z,8.37
2017-10-15T07:05:12.439Z,15.67
2017-10-15T07:07:39.874Z,26.43
2017-10-15T07:10:08.919Z,7.37
2017-10-15T07:12:36.352Z,11.30
2017-10-15T07:15:03.794Z,12.63
2017-10-15T07:17:31.984Z,9.50
2017-10-15T07:19:59.418Z,8.53
2017-10-15T07:22:27.620Z,6.17
2017-10-15T07:24:55.067Z,11.00
2017-10-15T07:27:23.787Z,28.90
2017-10-15T07:29:51.234Z,17.07
2017-10-15T07:32:19.155Z,12.57
2017-10-15T07:34:47.365Z,27.97
2017-10-15T07:37:14.829Z,7.83
2017-10-15T07:39:42.255Z,23.43
2017-10-15T07:42:10.480Z,10.77
2017-10-15T07:44:37.910Z,4.60
2017-10-15T07:47:05.356Z,12.53
2017-10-15T07:49:33.291Z,31.00
2017-10-15T07:52:01.498Z,6.70
2017-10-15T07:54:28.966Z,11.43
2017-10-15T07:56:56.806Z,8.57
2017-10-15T07:59:24.985Z,8.60
2017-10-15T08:01:52.433Z,19.97
2017-10-15T08:04:20.629Z,5.53
2017-10-15T08:06:48.069Z,18.47
2017-10-15T08:09:16.277Z,21.67
2017-10-15T08:11:44.258Z,49.77
2017-10-15T08:14:11.696Z,33.13
2017-10-15T08:16:39.415Z,34.63
2017-10-15T08:19:06.838Z,17.83
2017-10-15T08:21:34.889Z,46.90
2017-10-15T08:24:02.331Z,53.07
2017-10-15T08:26:30.200Z,18.80
2017-10-15T08:28:57.638Z,20.87
2017-10-15T08:31:25.854Z,33.37
2017-10-15T08:33:53.311Z,11.13
2017-10-15T08:36:20.784Z,13.77
2017-10-15T08:38:50.146Z,5.80
2017-10-15T08:41:17.580Z,7.43
2017-10-15T08:43:45.007Z,7.53
2017-10-15T08:46:12.460Z,23.13
2017-10-15T08:48:40.475Z,7.20
2017-10-15T08:51:08.676Z,7.87
2017-10-15T08:53:36.132Z,24.73
2017-10-15T08:56:03.570Z,6.60
2017-10-15T08:58:31.026Z,83.07
2017-10-15T09:00:59.224Z,9.13
2017-10-15T09:03:26.678Z,50.50
2017-10-15T09:05:54.128Z,50.40
2017-10-15T09:08:22.003Z,22.50
2017-10-15T09:10:49.877Z,16.70
2017-10-15T09:13:17.334Z,19.97
2017-10-15T09:15:44.797Z,18.03
2017-10-15T09:18:12.242Z,22.03
2017-10-15T09:20:39.700Z,18.70
2017-10-15T09:23:07.701Z,23.77
2017-10-15T09:25:35.138Z,21.30
2017-10-15T09:28:03.138Z,26.70
2017-10-15T09:30:30.706Z,23.30
2017-10-15T09:32:58.151Z,21.17
2017-10-15T09:35:25.586Z,23.50
2017-10-15T09:37:53.039Z,20.00
2017-10-15T09:40:20.495Z,23.97
2017-10-15T09:42:47.981Z,17.80
2017-10-15T09:45:15.408Z,22.53
2017-10-15T09:47:42.851Z,27.80
2017-10-15T09:50:10.303Z,30.33
2017-10-15T09:52:37.753Z,32.17
2017-10-15T09:55:05.210Z,22.27
2017-10-15T09:57:32.650Z,34.00
2017-10-15T10:00:00.867Z,28.63
2017-10-15T10:02:28.861Z,30.97
2017-10-15T10:04:56.307Z,35.53
2017-10-15T10:07:26.204Z,22.93
2017-10-15T10:09:53.658Z,43.23
2017-10-15T10:12:21.082Z,48.53
2017-10-15T10:14:49.298Z,25.53
2017-10-15T10:17:16.736Z,39.73
2017-10-15T10:19:44.691Z,33.33
2017-10-15T10:22:12.358Z,33.67
2017-10-15T10:24:39.806Z,32.60
2017-10-15T10:27:07.250Z,38.63
2017-10-15T10:29:34.721Z,39.20
2017-10-15T10:32:02.930Z,43.57
2017-10-15T10:34:31.759Z,24.27
2017-10-15T10:36:59.199Z,37.85
2017-10-15T10:39:26.662Z,37.05
2017-10-15T10:41:54.135Z,39.42
2017-10-15T10:44:21.558Z,41.97
2017-10-15T10:46:49.002Z,33.73
2017-10-15T10:49:16.448Z,45.58
2017-10-15T10:51:43.899Z,35.60
2017-10-15T10:54:11.333Z,42.10
2017-10-15T10:56:39.882Z,44.40
2017-10-15T10:59:07.318Z,42.05
2017-10-15T11:01:34.772Z,46.70
2017-10-15T11:04:02.244Z,47.60
2017-10-15T11:06:29.672Z,47.30
2017-10-15T11:08:57.106Z,50.53
2017-10-15T11:11:25.855Z,49.30
2017-10-15T11:13:53.516Z,53.57
2017-10-15T11:16:20.970Z,42.80
2017-10-15T11:18:48.410Z,51.33
2017-10-15T11:21:15.858Z,55.57
2017-10-15T11:23:43.655Z,53.10
2017-10-15T11:26:11.109Z,61.60
2017-10-15T11:28:38.559Z,49.53
2017-10-15T11:31:06.444Z,54.53
2017-10-15T11:33:34.310Z,49.30
2017-10-15T11:36:01.783Z,35.80
2017-10-15T11:38:29.218Z,44.35
2017-10-15T11:40:57.672Z,45.95
2017-10-15T11:43:25.129Z,51.75
2017-10-15T11:45:53.895Z,52.10
2017-10-15T11:48:21.346Z,49.85
2017-10-15T11:50:48.787Z,50.92
2017-10-15T11:53:17.137Z,60.35
2017-10-15T11:55:44.581Z,57.93
2017-10-15T11:58:12.051Z,56.17
2017-10-15T12:00:40.805Z,47.72
2017-10-15T12:03:08.272Z,50.28
2017-10-15T12:05:36.258Z,65.85
2017-10-15T12:08:03.711Z,59.45
2017-10-15T12:10:31.164Z,49.28
2017-10-15T12:12:58.643Z,56.10
2017-10-15T12:15:27.048Z,60.65
2017-10-15T12:17:55.424Z,65.20
2017-10-15T12:20:23.638Z,56.72
2017-10-15T12:22:51.084Z,59.58
2017-10-15T12:25:18.519Z,62.83
2017-10-15T12:27:46.727Z,63.67
2017-10-15T12:30:14.172Z,50.33
2017-10-15T12:32:41.629Z,66.68
2017-10-15T12:35:09.054Z,63.33
2017-10-15T12:37:37.270Z,54.50
2017-10-15T12:40:04.956Z,53.40
2017-10-15T12:42:32.430Z,48.90
2017-10-15T12:44:59.883Z,53.15
2017-10-15T12:47:27.323Z,52.33
2017-10-15T12:49:54.890Z,53.95
2017-10-15T12:52:22.342Z,59.13
2017-10-15T12:54:49.781Z,56.92
2017-10-15T12:57:17.283Z,59.08
2017-10-15T12:59:44.709Z,56.63
2017-10-15T13:02:12.161Z,63.42
2017-10-15T13:04:39.618Z,53.35
2017-10-15T13:07:07.063Z,50.12
2017-10-15T13:09:34.526Z,53.15
2017-10-15T13:12:01.961Z,53.55
2017-10-15T13:14:29.418Z,50.15
2017-10-15T13:16:56.857Z,49.55
2017-10-15T13:19:25.075Z,40.05
2017-10-15T13:21:52.556Z,46.05
2017-10-15T13:24:20.011Z,46.42
2017-10-15T13:26:47.458Z,46.25
2017-10-15T13:29:14.911Z,43.50
2017-10-15T13:31:42.639Z,45.60
2017-10-15T13:34:10.847Z,53.28
2017-10-15T13:36:38.290Z,46.42
2017-10-15T13:39:05.756Z,52.72
2017-10-15T13:41:33.265Z,58.95
2017-10-15T13:44:01.483Z,49.58
2017-10-15T13:46:28.934Z,50.60
2017-10-15T13:48:56.397Z,53.38
2017-10-15T13:51:23.867Z,57.90
2017-10-15T13:53:51.315Z,44.75
2017-10-15T13:56:18.757Z,57.35
2017-10-15T13:58:46.194Z,49.42
2017-10-15T14:01:14.572Z,51.92
2017-10-15T14:03:42.765Z,41.33
2017-10-15T14:06:10.218Z,53.33
2017-10-15T14:08:37.692Z,51.95
2017-10-15T14:11:05.130Z,47.58
2017-10-15T14:13:32.570Z,54.83
2017-10-15T14:16:00.796Z,50.75
2017-10-15T14:18:28.228Z,47.03
2017-10-15T14:20:55.672Z,50.38
2017-10-15T14:23:23.876Z,42.92
2017-10-15T14:25:51.542Z,46.53
2017-10-15T14:28:18.978Z,48.05
2017-10-15T14:30:46.438Z,57.03
2017-10-15T14:33:16.720Z,49.78
2017-10-15T14:35:44.732Z,43.13
2017-10-15T14:38:12.168Z,51.05
2017-10-15T14:40:40.370Z,49.25
2017-10-15T14:43:07.832Z,54.30
2017-10-15T14:45:35.333Z,41.20
2017-10-15T14:48:02.793Z,43.53
2017-10-15T14:50:30.246Z,45.30
2017-10-15T14:52:57.709Z,47.80
2017-10-15T14:55:25.154Z,38.75
2017-10-15T14:57:52.602Z,40.53
2017-10-15T15:00:20.043Z,39.28
2017-10-15T15:02:47.490Z,46.53
2017-10-15T15:05:14.944Z,33.88
2017-10-15T15:07:42.406Z,39.20
2017-10-15T15:10:09.826Z,52.90
2017-10-15T15:12:38.049Z,54.95
2017-10-15T15:15:06.091Z,42.03
2017-10-15T15:17:33.542Z,47.58
2017-10-15T15:20:00.982Z,48.20
2017-10-15T15:22:30.097Z,44.58
2017-10-15T15:24:57.530Z,64.87
2017-10-15T15:27:25.760Z,54.58
2017-10-15T15:29:53.203Z,59.58
2017-10-15T15:32:20.660Z,61.00
2017-10-15T15:34:48.089Z,59.88
2017-10-15T15:37:15.538Z,63.63
2017-10-15T15:39:43.753Z,66.95
2017-10-15T15:42:12.063Z,54.22
2017-10-15T15:44:39.506Z,65.03
2017-10-15T15:47:06.954Z,62.62
2017-10-15T15:49:34.399Z,64.67
2017-10-15T15:52:01.852Z,69.67
2017-10-15T15:54:29.297Z,55.60
2017-10-15T15:56:56.755Z,63.67
2017-10-15T15:59:24.203Z,62.47
2017-10-15T16:01:51.638Z,72.13
2017-10-15T16:04:19.857Z,60.23
2017-10-15T16:06:47.970Z,65.90
2017-10-15T16:09:15.419Z,62.10
2017-10-15T16:11:43.475Z,64.53
2017-10-15T16:14:10.930Z,71.93
2017-10-15T16:16:38.371Z,68.93
2017-10-15T16:19:05.830Z,71.37
2017-10-15T16:21:33.269Z,76.40
2017-10-15T16:24:00.711Z,80.00
2017-10-15T16:26:28.950Z,75.03
2017-10-15T16:28:56.395Z,67.57
2017-10-15T16:31:24.236Z,69.70
2017-10-15T16:33:51.683Z,65.10
2017-10-15T16:36:19.698Z,68.13
2017-10-15T16:38:47.138Z,77.63
2017-10-15T16:41:14.585Z,80.47
2017-10-15T16:43:42.450Z,105.00
2017-10-15T16:46:10.214Z,113.37
2017-10-15T16:48:37.778Z,106.57
2017-10-15T16:51:05.226Z,103.10
2017-10-15T16:53:33.183Z,104.17
2017-10-15T16:56:00.622Z,104.80
2017-10-15T16:58:28.823Z,104.60
2017-10-15T17:00:56.679Z,111.93
2017-10-15T17:03:25.285Z,111.90
2017-10-15T17:05:53.138Z,104.37
2017-10-15T17:08:20.577Z,102.83
2017-10-15T17:10:49.224Z,85.73
2017-10-15T17:13:16.668Z,78.67
2017-10-15T17:15:44.108Z,98.57
2017-10-15T17:18:11.542Z,71.70
2017-10-15T17:20:39.445Z,89.60
2017-10-15T17:23:06.890Z,71.17
2017-10-15T17:25:34.346Z,68.13
2017-10-15T17:28:01.772Z,69.17
2017-10-15T17:30:30.434Z,68.13
2017-10-15T17:32:57.971Z,83.03
2017-10-15T17:35:25.433Z,91.23
2017-10-15T17:37:52.867Z,82.80
2017-10-15T17:40:20.335Z,94.33
2017-10-15T17:42:48.055Z,95.63
2017-10-15T17:45:16.518Z,107.23
2017-10-15T17:47:44.056Z,108.03
2017-10-15T17:50:11.494Z,71.33
2017-10-15T17:52:38.970Z,79.27
2017-10-15T17:55:06.414Z,97.27
2017-10-15T17:57:33.859Z,113.90
2017-10-15T18:00:01.330Z,106.90
2017-10-15T18:02:30.694Z,97.10
2017-10-15T18:04:58.136Z,73.53
2017-10-15T18:07:26.321Z,69.63
2017-10-15T18:09:53.763Z,110.33
2017-10-15T18:12:21.970Z,101.00
2017-10-15T18:14:49.973Z,88.13
2017-10-15T18:17:17.419Z,106.23
2017-10-15T18:19:44.871Z,113.97
2017-10-15T18:22:12.311Z,108.33
2017-10-15T18:24:39.761Z,113.97
2017-10-15T18:27:07.198Z,67.17
2017-10-15T18:29:35.397Z,67.07
2017-10-15T18:32:02.850Z,80.13
2017-10-15T18:34:30.290Z,100.07
2017-10-15T18:36:59.034Z,100.80
2017-10-15T18:39:26.484Z,108.43
2017-10-15T18:41:53.921Z,116.47
2017-10-15T18:44:21.476Z,80.07
2017-10-15T18:46:48.903Z,73.33
2017-10-15T18:49:17.099Z,67.53
2017-10-15T18:51:44.538Z,82.10
2017-10-15T18:54:11.982Z,94.87
2017-10-15T18:56:40.195Z,83.63
2017-10-15T18:59:07.633Z,87.00
2017-10-15T19:01:35.078Z,104.40
2017-10-15T19:04:03.282Z,89.80
2017-10-15T19:06:31.257Z,116.70
2017-10-15T19:08:58.692Z,116.07
2017-10-15T19:11:26.369Z,83.50
2017-10-15T19:13:53.806Z,68.07
2017-10-15T19:16:21.257Z,116.40
2017-10-15T19:18:50.386Z,120.97
2017-10-15T19:21:18.027Z,110.37
2017-10-15T19:23:46.273Z,96.90
2017-10-15T19:26:13.792Z,102.93
2017-10-15T19:28:42.230Z,75.20
2017-10-15T19:31:10.438Z,64.10
2017-10-15T19:33:37.958Z,125.37
2017-10-15T19:36:06.166Z,142.50
2017-10-15T19:38:33.621Z,85.53
2017-10-15T19:41:01.181Z,92.37
2017-10-15T19:43:28.633Z,116.30
2017-10-15T19:45:56.183Z,94.60
2017-10-15T19:48:23.655Z,176.30
2017-10-15T19:50:51.098Z,187.03
2017-10-15T19:53:18.635Z,93.00
2017-10-15T19:55:47.667Z,87.70
2017-10-15T19:58:15.107Z,174.70
2017-10-15T20:00:43.110Z,121.13
2017-10-15T20:03:10.567Z,100.10
2017-10-15T20:05:38.847Z,65.00
2017-10-15T20:08:06.303Z,61.53
2017-10-15T20:10:33.883Z,88.30
2017-10-15T20:13:01.318Z,54.80
2017-10-15T20:15:28.767Z,54.23
2017-10-15T20:17:56.201Z,138.93
2017-10-15T20:20:23.658Z,142.90
2017-10-15T20:22:51.091Z,64.43
2017-10-15T20:25:19.434Z,66.63
2017-10-15T20:27:46.866Z,93.23
2017-10-15T20:30:14.309Z,95.93
2017-10-15T20:32:41.749Z,55.40
2017-10-15T20:35:09.974Z,83.27
2017-10-15T20:37:38.378Z,92.67
2017-10-15T20:40:05.835Z,77.77
2017-10-15T20:42:33.268Z,129.13
2017-10-15T20:45:00.759Z,113.43
2017-10-15T20:47:28.984Z,86.83
2017-10-15T20:49:57.266Z,165.27
2017-10-15T20:52:25.261Z,63.93
2017-10-15T20:54:52.698Z,168.80
2017-10-15T20:57:20.133Z,79.87
2017-10-15T20:59:47.636Z,63.40
2017-10-15T21:02:15.052Z,59.90
2017-10-15T21:04:42.497Z,66.53
2017-10-15T21:07:12.787Z,81.87
2017-10-15T21:09:40.247Z,106.00
2017-10-15T21:12:07.999Z,118.03
2017-10-15T21:14:35.434Z,60.83
2017-10-15T21:17:02.870Z,66.63
2017-10-15T21:19:31.029Z,202.67
2017-10-15T21:21:58.466Z,94.50
2017-10-15T21:24:26.680Z,85.87
2017-10-15T21:26:54.831Z,73.40
2017-10-15T21:29:23.025Z,60.20
2017-10-15T21:31:50.493Z,63.20
2017-10-15T21:34:17.934Z,79.37
2017-10-15T21:36:45.403Z,125.03
2017-10-15T21:39:12.850Z,77.47
2017-10-15T21:41:40.419Z,114.17
2017-10-15T21:44:07.973Z,97.50
2017-10-15T21:46:35.734Z,44.40
2017-10-15T21:49:03.171Z,40.03
2017-10-15T21:51:30.618Z,28.43
2017-10-15T21:53:58.823Z,30.07
2017-10-15T21:56:26.279Z,53.60
2017-10-15T21:58:54.320Z,46.93
2017-10-15T22:01:22.527Z,85.07
2017-10-15T22:03:49.957Z,28.23
2017-10-15T22:06:18.174Z,31.33
2017-10-15T22:08:46.006Z,27.87
2017-10-15T22:11:14.214Z,57.50
2017-10-15T22:13:42.056Z,202.30
2017-10-15T22:16:10.691Z,40.47
2017-10-15T22:18:43.949Z,30.90
2017-10-15T22:21:17.066Z,177.50
2017-10-15T22:23:44.516Z,31.90
2017-10-15T22:26:11.945Z,35.87
2017-10-15T22:28:39.484Z,33.00
2017-10-15T22:31:06.922Z,44.77
2017-10-15T22:33:35.581Z,37.40
2017-10-15T22:36:03.006Z,36.77
2017-10-15T22:38:30.451Z,62.97
2017-10-15T22:40:57.879Z,42.77
2017-10-15T22:43:26.091Z,44.27
2017-10-15T22:45:54.102Z,54.63
2017-10-15T22:48:21.804Z,52.63
2017-10-15T22:50:49.998Z,86.13
2017-10-15T22:53:17.447Z,42.13
2017-10-15T22:55:44.875Z,80.47
2017-10-15T22:58:13.087Z,148.33
2017-10-15T23:00:41.107Z,44.17
2017-10-15T23:03:08.530Z,24.63
2017-10-15T23:05:35.970Z,48.60
2017-10-15T23:08:03.412Z,30.17
2017-10-15T23:10:30.850Z,56.67
2017-10-15T23:12:59.063Z,88.03
2017-10-15T23:15:26.502Z,49.17
2017-10-15T23:17:54.756Z,56.97
2017-10-15T23:20:22.975Z,24.53
2017-10-15T23:22:50.968Z,25.83
2017-10-15T23:25:18.422Z,29.97
2017-10-15T23:27:45.851Z,14.50
2017-10-15T23:30:13.851Z,30.63
2017-10-15T23:32:42.006Z,24.10
2017-10-15T23:35:09.451Z,30.70
2017-10-15T23:37:36.890Z,113.73
2017-10-15T23:40:04.868Z,38.50
2017-10-15T23:42:32.718Z,40.53
2017-10-15T23:45:00.926Z,183.47
2017-10-15T23:47:28.894Z,167.43
2017-10-15T23:49:56.334Z,132.70
2017-10-15T23:52:23.770Z,203.90
2017-10-15T23:54:52.410Z,154.90
2017-10-15T23:57:19.847Z,78.57
2017-10-15T23:59:47.310Z,51.33
